sensor_id;sensor_type;location;lat;lon;timestamp;temperature;humidity
21801;DHT22;11062;51.164;16.924;2022-10-16T00:01:23;34.60;38.50
21801;DHT22;11062;51.164;16.924;2022-10-16T00:03:50;34.50;38.50
21801;DHT22;11062;51.164;16.924;2022-10-16T00:06:23;34.50;38.70
21801;DHT22;11062;51.164;16.924;2022-10-16T00:09:07;34.60;38.50
21801;DHT22;11062;51.164;16.924;2022-10-16T00:14:50;34.50;38.60
21801;DHT22;11062;51.164;16.924;2022-10-16T00:17:20;34.40;38.70
21801;DHT22;11062;51.164;16.924;2022-10-16T00:19:48;34.40;38.70
21801;DHT22;11062;51.164;16.924;2022-10-16T00:22:38;34.40;38.90
21801;DHT22;11062;51.164;16.924;2022-10-16T00:25:08;34.40;38.50
21801;DHT22;11062;51.164;16.924;2022-10-16T00:27:34;34.20;38.60
21801;DHT22;11062;51.164;16.924;2022-10-16T00:30:01;34.30;38.80
21801;DHT22;11062;51.164;16.924;2022-10-16T00:32:27;34.30;38.70
21801;DHT22;11062;51.164;16.924;2022-10-16T00:34:53;34.30;39.00
21801;DHT22;11062;51.164;16.924;2022-10-16T00:37:22;34.30;38.90
21801;DHT22;11062;51.164;16.924;2022-10-16T00:39:48;34.30;39.10
21801;DHT22;11062;51.164;16.924;2022-10-16T00:42:18;34.40;39.40
21801;DHT22;11062;51.164;16.924;2022-10-16T00:47:59;34.40;39.60
21801;DHT22;11062;51.164;16.924;2022-10-16T00:52:43;34.50;39.60
21801;DHT22;11062;51.164;16.924;2022-10-16T00:55:10;34.50;39.90
21801;DHT22;11062;51.164;16.924;2022-10-16T00:57:37;34.50;40.00
21801;DHT22;11062;51.164;16.924;2022-10-16T01:00:11;34.50;40.00
21801;DHT22;11062;51.164;16.924;2022-10-16T01:02:38;34.50;40.30
21801;DHT22;11062;51.164;16.924;2022-10-16T01:05:05;34.50;40.50
21801;DHT22;11062;51.164;16.924;2022-10-16T01:08:08;34.60;40.60
21801;DHT22;11062;51.164;16.924;2022-10-16T01:10:57;34.70;40.50
21801;DHT22;11062;51.164;16.924;2022-10-16T01:13:52;34.60;40.40
21801;DHT22;11062;51.164;16.924;2022-10-16T01:16:43;34.80;40.20
21801;DHT22;11062;51.164;16.924;2022-10-16T01:22:20;34.90;40.20
21801;DHT22;11062;51.164;16.924;2022-10-16T01:24:50;34.90;40.60
21801;DHT22;11062;51.164;16.924;2022-10-16T01:27:30;34.90;40.80
21801;DHT22;11062;51.164;16.924;2022-10-16T01:30:02;35.00;40.90
21801;DHT22;11062;51.164;16.924;2022-10-16T01:35:43;34.90;40.70
21801;DHT22;11062;51.164;16.924;2022-10-16T01:40:51;35.00;41.20
21801;DHT22;11062;51.164;16.924;2022-10-16T01:43:36;35.00;40.70
21801;DHT22;11062;51.164;16.924;2022-10-16T01:46:06;35.10;41.00
21801;DHT22;11062;51.164;16.924;2022-10-16T01:48:39;35.00;41.20
21801;DHT22;11062;51.164;16.924;2022-10-16T01:51:17;35.00;41.30
21801;DHT22;11062;51.164;16.924;2022-10-16T01:53:53;34.90;41.30
21801;DHT22;11062;51.164;16.924;2022-10-16T01:56:21;35.00;41.50
21801;DHT22;11062;51.164;16.924;2022-10-16T01:59:18;35.00;41.40
21801;DHT22;11062;51.164;16.924;2022-10-16T02:01:50;35.10;41.40
21801;DHT22;11062;51.164;16.924;2022-10-16T02:04:24;35.10;41.50
21801;DHT22;11062;51.164;16.924;2022-10-16T02:06:53;35.10;41.50
21801;DHT22;11062;51.164;16.924;2022-10-16T02:09:19;35.10;41.50
21801;DHT22;11062;51.164;16.924;2022-10-16T02:11:45;35.00;41.50
21801;DHT22;11062;51.164;16.924;2022-10-16T02:14:12;35.00;41.60
21801;DHT22;11062;51.164;16.924;2022-10-16T02:16:43;35.00;41.60
21801;DHT22;11062;51.164;16.924;2022-10-16T02:19:13;34.90;41.80
21801;DHT22;11062;51.164;16.924;2022-10-16T02:21:48;34.90;41.80
21801;DHT22;11062;51.164;16.924;2022-10-16T02:24:32;35.00;41.80
21801;DHT22;11062;51.164;16.924;2022-10-16T02:27:25;35.10;41.70
21801;DHT22;11062;51.164;16.924;2022-10-16T02:30:08;35.20;41.60
21801;DHT22;11062;51.164;16.924;2022-10-16T02:32:42;35.30;41.50
21801;DHT22;11062;51.164;16.924;2022-10-16T02:35:14;35.30;41.40
21801;DHT22;11062;51.164;16.924;2022-10-16T02:37:48;35.40;41.30
21801;DHT22;11062;51.164;16.924;2022-10-16T02:40:21;35.40;41.10
21801;DHT22;11062;51.164;16.924;2022-10-16T02:42:51;35.40;41.10
21801;DHT22;11062;51.164;16.924;2022-10-16T02:45:22;35.40;41.10
21801;DHT22;11062;51.164;16.924;2022-10-16T02:47:52;35.50;41.00
21801;DHT22;11062;51.164;16.924;2022-10-16T02:50:18;35.60;41.10
21801;DHT22;11062;51.164;16.924;2022-10-16T02:52:44;35.50;40.90
21801;DHT22;11062;51.164;16.924;2022-10-16T02:55:13;35.50;40.90
21801;DHT22;11062;51.164;16.924;2022-10-16T02:57:39;35.60;40.90
21801;DHT22;11062;51.164;16.924;2022-10-16T03:00:09;35.50;40.90
21801;DHT22;11062;51.164;16.924;2022-10-16T03:02:40;35.50;40.90
21801;DHT22;11062;51.164;16.924;2022-10-16T03:05:07;35.20;40.80
21801;DHT22;11062;51.164;16.924;2022-10-16T03:07:39;35.20;41.20
21801;DHT22;11062;51.164;16.924;2022-10-16T03:10:12;35.20;41.30
21801;DHT22;11062;51.164;16.924;2022-10-16T03:13:04;35.10;41.20
21801;DHT22;11062;51.164;16.924;2022-10-16T03:15:48;35.20;41.20
21801;DHT22;11062;51.164;16.924;2022-10-16T03:24:05;35.40;41.00
21801;DHT22;11062;51.164;16.924;2022-10-16T03:26:31;35.40;41.10
21801;DHT22;11062;51.164;16.924;2022-10-16T03:29:03;35.50;40.90
21801;DHT22;11062;51.164;16.924;2022-10-16T03:31:32;35.50;40.80
21801;DHT22;11062;51.164;16.924;2022-10-16T03:33:59;35.60;40.90
21801;DHT22;11062;51.164;16.924;2022-10-16T03:36:28;35.50;40.80
21801;DHT22;11062;51.164;16.924;2022-10-16T03:38:54;35.50;40.90
21801;DHT22;11062;51.164;16.924;2022-10-16T03:41:20;35.50;40.80
21801;DHT22;11062;51.164;16.924;2022-10-16T03:43:46;35.50;40.90
21801;DHT22;11062;51.164;16.924;2022-10-16T03:46:12;35.50;40.80
21801;DHT22;11062;51.164;16.924;2022-10-16T03:48:41;35.40;40.80
21801;DHT22;11062;51.164;16.924;2022-10-16T03:51:07;35.50;40.90
21801;DHT22;11062;51.164;16.924;2022-10-16T03:53:36;35.50;40.80
21801;DHT22;11062;51.164;16.924;2022-10-16T03:56:02;35.50;40.80
21801;DHT22;11062;51.164;16.924;2022-10-16T03:58:29;35.50;40.70
21801;DHT22;11062;51.164;16.924;2022-10-16T04:00:56;35.60;40.80
21801;DHT22;11062;51.164;16.924;2022-10-16T04:03:22;35.60;40.70
21801;DHT22;11062;51.164;16.924;2022-10-16T04:05:51;35.70;40.60
21801;DHT22;11062;51.164;16.924;2022-10-16T04:08:20;35.60;40.60
21801;DHT22;11062;51.164;16.924;2022-10-16T04:10:50;35.60;40.60
21801;DHT22;11062;51.164;16.924;2022-10-16T04:19:33;35.40;40.80
21801;DHT22;11062;51.164;16.924;2022-10-16T04:21:59;35.30;40.70
21801;DHT22;11062;51.164;16.924;2022-10-16T04:24:28;35.30;40.90
21801;DHT22;11062;51.164;16.924;2022-10-16T04:26:54;35.20;40.90
21801;DHT22;11062;51.164;16.924;2022-10-16T04:29:23;35.20;41.00
21801;DHT22;11062;51.164;16.924;2022-10-16T04:31:49;35.20;41.10
21801;DHT22;11062;51.164;16.924;2022-10-16T04:34:15;35.00;41.20
21801;DHT22;11062;51.164;16.924;2022-10-16T04:36:41;34.70;41.40
21801;DHT22;11062;51.164;16.924;2022-10-16T04:41:55;34.60;42.00
21801;DHT22;11062;51.164;16.924;2022-10-16T04:44:22;34.60;42.10
21801;DHT22;11062;51.164;16.924;2022-10-16T04:46:50;34.50;42.10
21801;DHT22;11062;51.164;16.924;2022-10-16T04:49:16;34.30;42.30
21801;DHT22;11062;51.164;16.924;2022-10-16T04:51:43;33.70;42.70
21801;DHT22;11062;51.164;16.924;2022-10-16T04:54:09;33.70;43.30
21801;DHT22;11062;51.164;16.924;2022-10-16T04:56:36;33.20;43.60
21801;DHT22;11062;51.164;16.924;2022-10-16T05:02:21;33.00;43.90
21801;DHT22;11062;51.164;16.924;2022-10-16T05:04:49;33.20;44.10
21801;DHT22;11062;51.164;16.924;2022-10-16T05:07:16;33.30;44.10
21801;DHT22;11062;51.164;16.924;2022-10-16T05:09:42;33.50;43.90
21801;DHT22;11062;51.164;16.924;2022-10-16T05:12:09;33.30;43.50
21801;DHT22;11062;51.164;16.924;2022-10-16T05:14:39;33.20;43.90
21801;DHT22;11062;51.164;16.924;2022-10-16T05:17:10;33.20;44.00
21801;DHT22;11062;51.164;16.924;2022-10-16T05:19:40;33.10;44.10
21801;DHT22;11062;51.164;16.924;2022-10-16T05:22:05;33.00;44.00
21801;DHT22;11062;51.164;16.924;2022-10-16T05:24:31;33.30;44.00
21801;DHT22;11062;51.164;16.924;2022-10-16T05:26:57;33.50;43.70
21801;DHT22;11062;51.164;16.924;2022-10-16T05:29:23;33.60;43.40
21801;DHT22;11062;51.164;16.924;2022-10-16T05:31:53;33.60;43.60
21801;DHT22;11062;51.164;16.924;2022-10-16T05:34:20;33.70;43.40
21801;DHT22;11062;51.164;16.924;2022-10-16T05:36:46;34.00;43.20
21801;DHT22;11062;51.164;16.924;2022-10-16T05:39:14;34.10;42.90
21801;DHT22;11062;51.164;16.924;2022-10-16T05:41:41;34.20;42.70
21801;DHT22;11062;51.164;16.924;2022-10-16T05:50:14;33.80;43.20
21801;DHT22;11062;51.164;16.924;2022-10-16T05:52:40;33.80;43.10
21801;DHT22;11062;51.164;16.924;2022-10-16T05:55:12;33.70;43.10
21801;DHT22;11062;51.164;16.924;2022-10-16T05:57:37;33.60;43.50
21801;DHT22;11062;51.164;16.924;2022-10-16T06:00:04;33.60;43.40
21801;DHT22;11062;51.164;16.924;2022-10-16T06:02:31;33.80;43.40
21801;DHT22;11062;51.164;16.924;2022-10-16T06:04:59;33.70;43.20
21801;DHT22;11062;51.164;16.924;2022-10-16T06:07:40;33.90;43.20
21801;DHT22;11062;51.164;16.924;2022-10-16T06:10:12;33.90;43.30
21801;DHT22;11062;51.164;16.924;2022-10-16T06:15:45;34.30;43.00
21801;DHT22;11062;51.164;16.924;2022-10-16T06:18:26;34.50;42.70
21801;DHT22;11062;51.164;16.924;2022-10-16T06:20:53;34.80;42.40
21801;DHT22;11062;51.164;16.924;2022-10-16T06:23:31;34.80;42.20
21801;DHT22;11062;51.164;16.924;2022-10-16T06:28:48;35.10;41.80
21801;DHT22;11062;51.164;16.924;2022-10-16T06:31:14;35.20;41.70
21801;DHT22;11062;51.164;16.924;2022-10-16T06:33:41;35.40;41.80
21801;DHT22;11062;51.164;16.924;2022-10-16T06:36:13;35.40;41.50
21801;DHT22;11062;51.164;16.924;2022-10-16T06:38:41;35.60;41.50
21801;DHT22;11062;51.164;16.924;2022-10-16T06:41:19;35.50;41.40
21801;DHT22;11062;51.164;16.924;2022-10-16T06:43:49;35.50;41.30
21801;DHT22;11062;51.164;16.924;2022-10-16T06:46:17;35.60;41.40
21801;DHT22;11062;51.164;16.924;2022-10-16T06:48:53;35.80;41.50
21801;DHT22;11062;51.164;16.924;2022-10-16T06:51:31;35.80;41.40
21801;DHT22;11062;51.164;16.924;2022-10-16T06:54:01;35.80;41.20
21801;DHT22;11062;51.164;16.924;2022-10-16T06:56:32;35.80;41.30
21801;DHT22;11062;51.164;16.924;2022-10-16T06:59:02;35.90;41.40
21801;DHT22;11062;51.164;16.924;2022-10-16T07:01:32;36.00;41.20
21801;DHT22;11062;51.164;16.924;2022-10-16T07:04:01;36.00;41.30
21801;DHT22;11062;51.164;16.924;2022-10-16T07:06:32;36.10;41.30
21801;DHT22;11062;51.164;16.924;2022-10-16T07:09:02;36.20;41.20
21801;DHT22;11062;51.164;16.924;2022-10-16T07:11:31;36.20;41.10
21801;DHT22;11062;51.164;16.924;2022-10-16T07:14:00;36.20;41.20
21801;DHT22;11062;51.164;16.924;2022-10-16T07:16:31;36.30;41.20
21801;DHT22;11062;51.164;16.924;2022-10-16T07:19:00;36.30;41.20
21801;DHT22;11062;51.164;16.924;2022-10-16T07:21:41;36.30;41.50
21801;DHT22;11062;51.164;16.924;2022-10-16T07:24:15;36.50;41.20
21801;DHT22;11062;51.164;16.924;2022-10-16T07:26:45;36.40;41.10
21801;DHT22;11062;51.164;16.924;2022-10-16T07:29:14;36.70;41.20
21801;DHT22;11062;51.164;16.924;2022-10-16T07:31:44;36.70;40.90
21801;DHT22;11062;51.164;16.924;2022-10-16T07:34:19;36.80;40.90
21801;DHT22;11062;51.164;16.924;2022-10-16T07:36:54;36.90;40.90
21801;DHT22;11062;51.164;16.924;2022-10-16T07:39:23;36.70;40.90
21801;DHT22;11062;51.164;16.924;2022-10-16T07:41:53;36.70;41.00
21801;DHT22;11062;51.164;16.924;2022-10-16T07:44:25;36.80;41.10
21801;DHT22;11062;51.164;16.924;2022-10-16T07:46:54;36.70;41.20
21801;DHT22;11062;51.164;16.924;2022-10-16T07:49:23;36.70;40.80
21801;DHT22;11062;51.164;16.924;2022-10-16T07:51:53;36.90;41.20
21801;DHT22;11062;51.164;16.924;2022-10-16T07:54:19;36.90;40.90
21801;DHT22;11062;51.164;16.924;2022-10-16T07:56:46;36.80;41.10
21801;DHT22;11062;51.164;16.924;2022-10-16T07:59:22;36.80;41.00
21801;DHT22;11062;51.164;16.924;2022-10-16T08:02:00;36.90;40.90
21801;DHT22;11062;51.164;16.924;2022-10-16T08:04:26;36.90;41.00
21801;DHT22;11062;51.164;16.924;2022-10-16T08:06:55;36.60;41.70
21801;DHT22;11062;51.164;16.924;2022-10-16T08:09:27;36.40;41.20
21801;DHT22;11062;51.164;16.924;2022-10-16T08:12:03;36.60;41.40
21801;DHT22;11062;51.164;16.924;2022-10-16T08:14:35;36.40;41.40
21801;DHT22;11062;51.164;16.924;2022-10-16T08:17:25;36.20;41.70
21801;DHT22;11062;51.164;16.924;2022-10-16T08:20:11;36.20;41.90
21801;DHT22;11062;51.164;16.924;2022-10-16T08:22:49;36.20;42.10
21801;DHT22;11062;51.164;16.924;2022-10-16T08:25:36;36.60;42.10
21801;DHT22;11062;51.164;16.924;2022-10-16T08:28:08;36.60;41.90
21801;DHT22;11062;51.164;16.924;2022-10-16T08:30:34;36.70;41.80
21801;DHT22;11062;51.164;16.924;2022-10-16T08:33:01;36.80;41.90
21801;DHT22;11062;51.164;16.924;2022-10-16T08:35:30;36.80;42.00
21801;DHT22;11062;51.164;16.924;2022-10-16T08:37:59;36.80;41.70
21801;DHT22;11062;51.164;16.924;2022-10-16T08:40:29;37.10;42.10
21801;DHT22;11062;51.164;16.924;2022-10-16T08:43:13;36.70;41.40
21801;DHT22;11062;51.164;16.924;2022-10-16T08:48:54;37.20;41.40
21801;DHT22;11062;51.164;16.924;2022-10-16T08:51:31;37.00;41.40
21801;DHT22;11062;51.164;16.924;2022-10-16T08:53:59;36.60;42.40
21801;DHT22;11062;51.164;16.924;2022-10-16T08:56:27;36.50;41.90
21801;DHT22;11062;51.164;16.924;2022-10-16T08:58:54;36.70;41.90
21801;DHT22;11062;51.164;16.924;2022-10-16T09:01:22;36.90;41.60
21801;DHT22;11062;51.164;16.924;2022-10-16T09:06:46;37.10;41.40
21801;DHT22;11062;51.164;16.924;2022-10-16T09:16:57;37.60;40.80
21801;DHT22;11062;51.164;16.924;2022-10-16T09:19:46;37.70;40.80
21801;DHT22;11062;51.164;16.924;2022-10-16T09:22:18;37.70;40.60
21801;DHT22;11062;51.164;16.924;2022-10-16T09:24:47;37.90;40.40
21801;DHT22;11062;51.164;16.924;2022-10-16T09:27:15;38.20;40.40
21801;DHT22;11062;51.164;16.924;2022-10-16T09:29:41;38.10;39.90
21801;DHT22;11062;51.164;16.924;2022-10-16T09:32:19;38.00;40.10
21801;DHT22;11062;51.164;16.924;2022-10-16T09:34:55;37.80;40.10
21801;DHT22;11062;51.164;16.924;2022-10-16T09:37:24;37.80;40.40
21801;DHT22;11062;51.164;16.924;2022-10-16T09:39:57;37.60;40.50
21801;DHT22;11062;51.164;16.924;2022-10-16T09:42:24;37.30;41.20
21801;DHT22;11062;51.164;16.924;2022-10-16T09:44:52;37.40;40.80
21801;DHT22;11062;51.164;16.924;2022-10-16T09:47:24;37.40;41.00
21801;DHT22;11062;51.164;16.924;2022-10-16T09:50:22;37.40;41.00
21801;DHT22;11062;51.164;16.924;2022-10-16T09:52:51;37.70;40.90
21801;DHT22;11062;51.164;16.924;2022-10-16T10:01:14;37.50;40.50
21801;DHT22;11062;51.164;16.924;2022-10-16T10:03:43;37.60;40.70
21801;DHT22;11062;51.164;16.924;2022-10-16T10:06:22;37.30;40.60
21801;DHT22;11062;51.164;16.924;2022-10-16T10:09:22;37.20;40.90
21801;DHT22;11062;51.164;16.924;2022-10-16T10:12:19;37.30;40.70
21801;DHT22;11062;51.164;16.924;2022-10-16T10:14:50;37.50;41.20
21801;DHT22;11062;51.164;16.924;2022-10-16T10:23:28;37.50;40.40
21801;DHT22;11062;51.164;16.924;2022-10-16T10:26:03;37.20;40.60
21801;DHT22;11062;51.164;16.924;2022-10-16T10:40:28;37.50;41.30
21801;DHT22;11062;51.164;16.924;2022-10-16T11:01:14;37.20;40.10
21801;DHT22;11062;51.164;16.924;2022-10-16T11:04:29;37.80;40.00
21801;DHT22;11062;51.164;16.924;2022-10-16T11:07:11;37.60;39.50
21801;DHT22;11062;51.164;16.924;2022-10-16T11:09:48;38.20;39.50
21801;DHT22;11062;51.164;16.924;2022-10-16T11:12:38;38.60;38.90
21801;DHT22;11062;51.164;16.924;2022-10-16T11:15:39;39.10;38.40
21801;DHT22;11062;51.164;16.924;2022-10-16T11:21:29;39.80;37.90
21801;DHT22;11062;51.164;16.924;2022-10-16T11:24:22;39.70;38.30
21801;DHT22;11062;51.164;16.924;2022-10-16T11:27:17;40.40;37.20
21801;DHT22;11062;51.164;16.924;2022-10-16T11:29:59;40.50;37.00
21801;DHT22;11062;51.164;16.924;2022-10-16T11:38:00;41.10;35.80
21801;DHT22;11062;51.164;16.924;2022-10-16T11:40:41;41.30;35.70
21801;DHT22;11062;51.164;16.924;2022-10-16T11:43:27;41.70;35.50
21801;DHT22;11062;51.164;16.924;2022-10-16T11:46:00;41.70;34.90
21801;DHT22;11062;51.164;16.924;2022-10-16T11:51:42;41.90;35.30
21801;DHT22;11062;51.164;16.924;2022-10-16T11:54:37;41.50;35.20
21801;DHT22;11062;51.164;16.924;2022-10-16T11:57:24;40.90;35.80
21801;DHT22;11062;51.164;16.924;2022-10-16T12:05:24;40.20;36.60
21801;DHT22;11062;51.164;16.924;2022-10-16T12:08:13;40.10;36.80
21801;DHT22;11062;51.164;16.924;2022-10-16T12:10:46;40.30;37.00
21801;DHT22;11062;51.164;16.924;2022-10-16T12:13:32;40.30;37.10
21801;DHT22;11062;51.164;16.924;2022-10-16T12:18:39;40.00;37.00
21801;DHT22;11062;51.164;16.924;2022-10-16T12:21:08;39.60;37.40
21801;DHT22;11062;51.164;16.924;2022-10-16T12:23:45;39.30;37.80
21801;DHT22;11062;51.164;16.924;2022-10-16T12:26:13;39.10;37.80
21801;DHT22;11062;51.164;16.924;2022-10-16T12:28:42;39.00;38.30
21801;DHT22;11062;51.164;16.924;2022-10-16T12:31:17;38.90;38.50
21801;DHT22;11062;51.164;16.924;2022-10-16T12:33:56;38.60;38.40
21801;DHT22;11062;51.164;16.924;2022-10-16T12:36:32;38.50;38.70
21801;DHT22;11062;51.164;16.924;2022-10-16T12:38:59;38.50;39.20
21801;DHT22;11062;51.164;16.924;2022-10-16T12:41:34;38.40;39.20
21801;DHT22;11062;51.164;16.924;2022-10-16T12:44:20;38.40;39.30
21801;DHT22;11062;51.164;16.924;2022-10-16T12:46:47;38.40;39.70
21801;DHT22;11062;51.164;16.924;2022-10-16T12:51:39;38.40;39.50
21801;DHT22;11062;51.164;16.924;2022-10-16T12:54:27;38.40;39.20
21801;DHT22;11062;51.164;16.924;2022-10-16T13:11:29;38.20;38.80
21801;DHT22;11062;51.164;16.924;2022-10-16T13:14:28;38.20;39.00
21801;DHT22;11062;51.164;16.924;2022-10-16T13:17:12;38.20;39.10
21801;DHT22;11062;51.164;16.924;2022-10-16T13:23:17;38.20;39.40
21801;DHT22;11062;51.164;16.924;2022-10-16T13:26:12;38.30;39.30
21801;DHT22;11062;51.164;16.924;2022-10-16T13:28:48;38.40;39.10
21801;DHT22;11062;51.164;16.924;2022-10-16T13:31:25;38.50;39.10
21801;DHT22;11062;51.164;16.924;2022-10-16T13:33:56;38.80;39.30
21801;DHT22;11062;51.164;16.924;2022-10-16T13:36:25;39.10;38.90
21801;DHT22;11062;51.164;16.924;2022-10-16T13:39:20;39.40;38.50
21801;DHT22;11062;51.164;16.924;2022-10-16T13:42:11;39.30;38.10
21801;DHT22;11062;51.164;16.924;2022-10-16T13:44:43;39.60;38.30
21801;DHT22;11062;51.164;16.924;2022-10-16T13:47:29;39.50;38.10
21801;DHT22;11062;51.164;16.924;2022-10-16T13:50:05;39.80;38.20
21801;DHT22;11062;51.164;16.924;2022-10-16T13:52:32;39.80;38.10
21801;DHT22;11062;51.164;16.924;2022-10-16T13:54:58;40.10;37.80
21801;DHT22;11062;51.164;16.924;2022-10-16T13:57:25;40.10;37.10
21801;DHT22;11062;51.164;16.924;2022-10-16T13:59:52;39.90;37.40
21801;DHT22;11062;51.164;16.924;2022-10-16T14:02:25;39.60;37.60
21801;DHT22;11062;51.164;16.924;2022-10-16T14:04:53;39.50;38.10
21801;DHT22;11062;51.164;16.924;2022-10-16T14:07:29;39.20;38.10
21801;DHT22;11062;51.164;16.924;2022-10-16T14:10:04;39.20;37.90
21801;DHT22;11062;51.164;16.924;2022-10-16T14:12:31;39.30;38.40
21801;DHT22;11062;51.164;16.924;2022-10-16T14:15:01;39.40;38.50
21801;DHT22;11062;51.164;16.924;2022-10-16T14:17:28;39.30;38.40
21801;DHT22;11062;51.164;16.924;2022-10-16T14:19:57;39.60;38.40
21801;DHT22;11062;51.164;16.924;2022-10-16T14:22:35;39.60;38.10
21801;DHT22;11062;51.164;16.924;2022-10-16T14:28:17;39.60;37.90
21801;DHT22;11062;51.164;16.924;2022-10-16T14:30:54;39.60;38.00
21801;DHT22;11062;51.164;16.924;2022-10-16T14:36:20;39.50;38.10
21801;DHT22;11062;51.164;16.924;2022-10-16T14:38:54;39.70;38.10
21801;DHT22;11062;51.164;16.924;2022-10-16T14:41:22;39.80;38.40
21801;DHT22;11062;51.164;16.924;2022-10-16T14:43:57;39.70;38.20
21801;DHT22;11062;51.164;16.924;2022-10-16T14:46:34;39.60;38.20
21801;DHT22;11062;51.164;16.924;2022-10-16T14:49:24;39.70;38.50
21801;DHT22;11062;51.164;16.924;2022-10-16T14:52:12;39.70;38.20
21801;DHT22;11062;51.164;16.924;2022-10-16T14:54:47;39.80;38.30
21801;DHT22;11062;51.164;16.924;2022-10-16T14:57:31;39.90;38.40
21801;DHT22;11062;51.164;16.924;2022-10-16T15:00:04;40.10;38.40
21801;DHT22;11062;51.164;16.924;2022-10-16T15:02:35;40.20;38.30
21801;DHT22;11062;51.164;16.924;2022-10-16T15:05:19;40.40;38.10
21801;DHT22;11062;51.164;16.924;2022-10-16T15:07:46;40.40;37.90
21801;DHT22;11062;51.164;16.924;2022-10-16T15:10:13;40.50;38.00
21801;DHT22;11062;51.164;16.924;2022-10-16T15:12:39;40.60;37.90
21801;DHT22;11062;51.164;16.924;2022-10-16T15:15:23;40.60;37.70
21801;DHT22;11062;51.164;16.924;2022-10-16T15:17:55;40.60;37.80
21801;DHT22;11062;51.164;16.924;2022-10-16T15:20:28;40.60;37.80
21801;DHT22;11062;51.164;16.924;2022-10-16T15:22:56;40.50;37.90
21801;DHT22;11062;51.164;16.924;2022-10-16T15:25:37;40.40;38.10
21801;DHT22;11062;51.164;16.924;2022-10-16T15:28:05;40.30;38.20
21801;DHT22;11062;51.164;16.924;2022-10-16T15:30:32;40.10;38.30
21801;DHT22;11062;51.164;16.924;2022-10-16T15:33:00;40.10;38.40
21801;DHT22;11062;51.164;16.924;2022-10-16T15:35:27;40.10;38.50
21801;DHT22;11062;51.164;16.924;2022-10-16T15:37:56;40.10;38.60
21801;DHT22;11062;51.164;16.924;2022-10-16T15:40:23;40.10;38.60
21801;DHT22;11062;51.164;16.924;2022-10-16T15:42:49;40.10;38.70
21801;DHT22;11062;51.164;16.924;2022-10-16T15:45:36;40.10;38.70
21801;DHT22;11062;51.164;16.924;2022-10-16T15:48:06;40.10;38.50
21801;DHT22;11062;51.164;16.924;2022-10-16T15:53:34;40.10;38.70
21801;DHT22;11062;51.164;16.924;2022-10-16T15:59:09;40.10;38.60
21801;DHT22;11062;51.164;16.924;2022-10-16T16:04:10;39.90;38.80
21801;DHT22;11062;51.164;16.924;2022-10-16T16:06:42;39.80;38.80
21801;DHT22;11062;51.164;16.924;2022-10-16T16:09:11;39.80;38.90
21801;DHT22;11062;51.164;16.924;2022-10-16T16:11:38;39.80;39.00
21801;DHT22;11062;51.164;16.924;2022-10-16T16:14:12;39.70;39.00
21801;DHT22;11062;51.164;16.924;2022-10-16T16:16:42;39.60;39.00
21801;DHT22;11062;51.164;16.924;2022-10-16T16:19:14;39.60;39.00
21801;DHT22;11062;51.164;16.924;2022-10-16T16:22:00;39.50;39.20
21801;DHT22;11062;51.164;16.924;2022-10-16T16:24:28;39.50;39.30
21801;DHT22;11062;51.164;16.924;2022-10-16T16:26:54;39.20;39.60
21801;DHT22;11062;51.164;16.924;2022-10-16T16:29:20;39.00;39.60
21801;DHT22;11062;51.164;16.924;2022-10-16T16:32:02;39.00;39.80
21801;DHT22;11062;51.164;16.924;2022-10-16T16:34:53;38.90;39.90
21801;DHT22;11062;51.164;16.924;2022-10-16T16:37:29;38.80;39.90
21801;DHT22;11062;51.164;16.924;2022-10-16T16:39:58;38.80;40.10
21801;DHT22;11062;51.164;16.924;2022-10-16T16:42:28;38.90;40.00
21801;DHT22;11062;51.164;16.924;2022-10-16T16:45:12;38.90;40.00
21801;DHT22;11062;51.164;16.924;2022-10-16T16:47:39;38.80;40.00
21801;DHT22;11062;51.164;16.924;2022-10-16T16:50:11;38.80;40.10
21801;DHT22;11062;51.164;16.924;2022-10-16T16:52:37;38.80;40.10
21801;DHT22;11062;51.164;16.924;2022-10-16T16:55:03;38.70;40.10
21801;DHT22;11062;51.164;16.924;2022-10-16T16:57:29;38.60;40.10
21801;DHT22;11062;51.164;16.924;2022-10-16T16:59:58;38.70;40.10
21801;DHT22;11062;51.164;16.924;2022-10-16T17:05:07;38.80;40.10
21801;DHT22;11062;51.164;16.924;2022-10-16T17:07:33;38.80;40.00
21801;DHT22;11062;51.164;16.924;2022-10-16T17:10:01;38.80;40.10
21801;DHT22;11062;51.164;16.924;2022-10-16T17:12:29;38.70;40.10
21801;DHT22;11062;51.164;16.924;2022-10-16T17:17:33;38.80;40.20
21801;DHT22;11062;51.164;16.924;2022-10-16T17:19:59;38.50;40.10
21801;DHT22;11062;51.164;16.924;2022-10-16T17:22:25;38.60;40.30
21801;DHT22;11062;51.164;16.924;2022-10-16T17:27:51;38.50;40.40
21801;DHT22;11062;51.164;16.924;2022-10-16T17:30:17;38.40;40.40
21801;DHT22;11062;51.164;16.924;2022-10-16T17:32:43;38.40;40.40
21801;DHT22;11062;51.164;16.924;2022-10-16T17:35:09;38.30;40.40
21801;DHT22;11062;51.164;16.924;2022-10-16T17:37:36;38.20;40.50
21801;DHT22;11062;51.164;16.924;2022-10-16T17:40:02;38.30;40.70
21801;DHT22;11062;51.164;16.924;2022-10-16T17:42:31;38.20;40.60
21801;DHT22;11062;51.164;16.924;2022-10-16T17:47:33;38.20;40.60
21801;DHT22;11062;51.164;16.924;2022-10-16T17:49:59;38.20;40.70
21801;DHT22;11062;51.164;16.924;2022-10-16T17:52:28;38.20;40.80
21801;DHT22;11062;51.164;16.924;2022-10-16T17:54:54;38.20;40.70
21801;DHT22;11062;51.164;16.924;2022-10-16T17:57:22;38.20;40.70
21801;DHT22;11062;51.164;16.924;2022-10-16T17:59:49;38.20;40.70
21801;DHT22;11062;51.164;16.924;2022-10-16T18:02:18;38.10;40.60
21801;DHT22;11062;51.164;16.924;2022-10-16T18:04:56;38.10;40.70
21801;DHT22;11062;51.164;16.924;2022-10-16T18:07:36;38.10;40.80
21801;DHT22;11062;51.164;16.924;2022-10-16T18:10:04;38.10;40.80
21801;DHT22;11062;51.164;16.924;2022-10-16T18:12:36;38.00;40.80
21801;DHT22;11062;51.164;16.924;2022-10-16T18:15:08;38.00;40.70
21801;DHT22;11062;51.164;16.924;2022-10-16T18:17:38;37.90;40.70
21801;DHT22;11062;51.164;16.924;2022-10-16T18:20:09;38.00;40.70
21801;DHT22;11062;51.164;16.924;2022-10-16T18:22:42;38.00;40.70
21801;DHT22;11062;51.164;16.924;2022-10-16T18:25:18;38.00;40.70
21801;DHT22;11062;51.164;16.924;2022-10-16T18:30:26;38.00;40.60
21801;DHT22;11062;51.164;16.924;2022-10-16T18:32:55;37.90;40.60
21801;DHT22;11062;51.164;16.924;2022-10-16T18:35:23;38.00;40.60
21801;DHT22;11062;51.164;16.924;2022-10-16T18:37:52;38.00;40.60
21801;DHT22;11062;51.164;16.924;2022-10-16T18:40:20;37.90;40.40